ADDS METAR Data INFO
IDs: Format: Raw Decoded Include TAF

Data at: 0703 UTC 19 Oct 2017

KBQP 190655Z AUTO 00000KT 10SM CLR 11/11 A3017 RMK AO2 T01100107
KBQP 190635Z AUTO 00000KT 10SM CLR 12/11 A3017 RMK AO2 T01160113
KBQP 190615Z AUTO 00000KT 10SM CLR 13/12 A3017 RMK AO2 T01300115
KBQP 190555Z AUTO 00000KT 10SM CLR 14/12 A3017 RMK AO2 T01360119 10155 20110 402680070
KBQP 190535Z AUTO 00000KT 10SM CLR 14/12 A3018 RMK AO2 T01440117
KBQP 190515Z AUTO 00000KT 10SM CLR 15/12 A3019 RMK AO2 T01510115
KBQP 190455Z AUTO 00000KT 10SM CLR 15/12 A3018 RMK AO2 T01460117
KBQP 190435Z AUTO 00000KT 10SM CLR 13/12 A3018 RMK AO2 T01250122
KBQP 190415Z AUTO 00000KT 10SM CLR 12/11 A3019 RMK AO2 T01160112
KBQP 190355Z AUTO 00000KT 10SM CLR 12/11 A3019 RMK AO2 T01150112
KBQP 190335Z AUTO 00000KT 10SM CLR 13/12 A3020 RMK AO2 T01250120
KBQP 190315Z AUTO 00000KT 10SM CLR 11/11 A3019 RMK AO2 T01140111
KBQP 190255Z AUTO 00000KT 10SM CLR 11/11 A3019 RMK AO2 T01110108
KBQP 190235Z AUTO 00000KT 10SM CLR 12/11 A3019 RMK AO2 T01150111
KBQP 190215Z AUTO 00000KT 10SM CLR 12/11 A3018 RMK AO2 T01170114
KBQP 190155Z AUTO 00000KT 10SM CLR 12/12 A3018 RMK AO2 T01210115
KBQP 190135Z AUTO 00000KT 10SM CLR 12/12 A3018 RMK AO2 T01190116
KBQP 190115Z AUTO 00000KT 10SM CLR 12/12 A3018 RMK AO2 T01240121
KBQP 190055Z AUTO 00000KT 10SM CLR 13/12 A3018 RMK AO2 T01320122
KBQP 190035Z AUTO 00000KT 10SM CLR 14/13 A3018 RMK AO2 T01400125
KBQP 190015Z AUTO 00000KT 10SM CLR 14/12 A3017 RMK AO2 T01440121
KBQP 182355Z AUTO 00000KT 10SM CLR 16/13 A3016 RMK AO2 T01570125 10268 20157
KBQP 182335Z AUTO 00000KT 10SM CLR 17/12 A3016 RMK AO2 T01710124
KBQP 182315Z AUTO 00000KT 10SM CLR 19/13 A3015 RMK AO2 T01940130
KBQP 182255Z AUTO 00000KT 10SM CLR 22/12 A3015 RMK AO2 T02180118
KBQP 182235Z AUTO 00000KT 10SM CLR 25/10 A3015 RMK AO2 T02450097
KBQP 182215Z AUTO 00000KT 10SM CLR 26/09 A3015 RMK AO2 T02550093
KBQP 182155Z AUTO 00000KT 10SM CLR 26/07 A3015 RMK AO2 T02610065
KBQP 182135Z AUTO 00000KT 10SM CLR 27/06 A3015 RMK AO2 T02650064
KBQP 182115Z AUTO 00000KT 10SM CLR 26/07 A3015 RMK AO2 T02640067
KBQP 182055Z AUTO 00000KT 10SM CLR 26/07 A3015 RMK AO2 T02630073
KBQP 182035Z AUTO 06004KT 10SM CLR 26/08 A3015 RMK AO2 T02630083
KBQP 182015Z AUTO 15003KT 10SM CLR 26/08 A3015 RMK AO2 T02600082
KBQP 181955Z AUTO 00000KT 10SM CLR 26/09 A3016 RMK AO2 T02620085
KBQP 181935Z AUTO 00000KT 10SM CLR 26/08 A3017 RMK AO2 T02610082
KBQP 181915Z AUTO 13004KT 10SM CLR 25/08 A3018 RMK AO2 T02530082
KBQP 181855Z AUTO 09003KT 10SM CLR 26/08 A3019 RMK AO2 T02560083
KBQP 181835Z AUTO 00000KT 10SM CLR 25/08 A3020 RMK AO2 T02540077
KBQP 181815Z AUTO 13003KT 10SM CLR 25/09 A3021 RMK AO2 T02460088
KBQP 181755Z AUTO 00000KT 10SM CLR 25/09 A3022 RMK AO2 T02460094 10246 20070
KBQP 181735Z AUTO 00000KT 10SM CLR 24/09 A3023 RMK AO2 T02370092
KBQP 181715Z AUTO 00000KT 10SM CLR 23/10 A3024 RMK AO2 T02310095
KBQP 181655Z AUTO 10003KT 10SM CLR 23/10 A3025 RMK AO2 T02280100
KBQP 181635Z AUTO 20005KT 10SM CLR 22/10 A3025 RMK AO2 T02220097
KBQP 181615Z AUTO 17003KT 10SM CLR 22/10 A3025 RMK AO2 T02160098
KBQP 181555Z AUTO 18003KT 10SM CLR 21/10 A3025 RMK AO2 T02100098
KBQP 181535Z AUTO 00000KT 10SM CLR 21/10 A3026 RMK AO2 T02060102
KBQP 181515Z AUTO 00000KT 10SM CLR 20/11 A3025 RMK AO2 T01960107
KBQP 181455Z AUTO 11003KT 10SM CLR 19/11 A3026 RMK AO2 T01850110
KBQP 181435Z AUTO 12003KT 10SM CLR 17/11 A3025 RMK AO2 T01710111
KBQP 181415Z AUTO 00000KT 10SM CLR 16/12 A3024 RMK AO2 T01570117
KBQP 181355Z AUTO 00000KT 10SM CLR 14/13 A3024 RMK AO2 T01440125
KBQP 181335Z AUTO 11003KT 10SM CLR 13/12 A3023 RMK AO2 T01250122
KBQP 181315Z AUTO 00000KT 10SM CLR 11/11 A3022 RMK AO2 T01090106
KBQP 181255Z AUTO 00000KT 7SM CLR 08/08 A3022 RMK AO2 T00830081
KBQP 181235Z AUTO 00000KT 5SM BR CLR 07/07 A3022 RMK AO2 T00740072
KBQP 181215Z AUTO 00000KT 1 1/2SM BR VV007 08/07 A3022 RMK AO2 VIS 1/2V5 T00750071
KBQP 181155Z AUTO 00000KT 10SM CLR 08/08 A3022 RMK AO2 T00780075 10110 20078
KBQP 181135Z AUTO 00000KT 1SM BR VV007 08/08 A3022 RMK AO2 T00840080
KBQP 181115Z AUTO 00000KT 10SM CLR 09/08 A3022 RMK AO2 T00860083
KBQP 181055Z AUTO 00000KT 10SM CLR 09/09 A3022 RMK AO2 T00900087
KBQP 181035Z AUTO 00000KT 10SM CLR 11/10 A3021 RMK AO2 T01050101
KBQP 181015Z AUTO 00000KT 10SM CLR 11/11 A3020 RMK AO2 T01100106
KBQP 180955Z AUTO 00000KT 10SM CLR 11/10 A3020 RMK AO2 T01050102
KBQP 180935Z AUTO 00000KT 10SM CLR 09/08 A3020 RMK AO2 T00870084
KBQP 180915Z AUTO 00000KT 10SM CLR 10/09 A3020 RMK AO2 T00960092
KBQP 180855Z AUTO 00000KT 10SM CLR 09/09 A3020 RMK AO2 T00930090
KBQP 180835Z AUTO 00000KT 10SM CLR 08/08 A3021 RMK AO2 T00840081
KBQP 180815Z AUTO 00000KT 10SM CLR 10/10 A3021 RMK AO2 T01010098
KBQP 180755Z AUTO 08003KT 10SM CLR 10/10 A3021 RMK AO2 T01000097
KBQP 180735Z AUTO 07003KT 10SM CLR 11/10 A3021 RMK AO2 T01050102
KBQP 180715Z AUTO 08003KT 10SM CLR 10/10 A3021 RMK AO2 T01020100
KBQP 180655Z AUTO 07004KT 10SM CLR 10/10 A3021 RMK AO2 T01040101
KBQP 180635Z AUTO 00000KT 10SM CLR 10/10 A3021 RMK AO2 T00970095
KBQP 180615Z AUTO 00000KT 10SM CLR 09/08 A3021 RMK AO2 T00860084
KBQP 180555Z AUTO 00000KT 10SM CLR 09/09 A3021 RMK AO2 T00910088 10138 20086 402410042
KBQP 180535Z AUTO 00000KT 10SM CLR 10/09 A3021 RMK AO2 T00950091
KBQP 180520Z AUTO 00000KT 10SM CLR 09/09 A3021 RMK AO2 T00890086
KBQP 180455Z AUTO 00000KT 10SM CLR 10/09 A3021 RMK AO2 T00950092
KBQP 180435Z AUTO 00000KT 10SM CLR 10/09 A3021 RMK AO2 T00950092
KBQP 180415Z AUTO 00000KT 10SM CLR 09/09 A3021 RMK AO2 T00940091
KBQP 180355Z AUTO 00000KT 10SM CLR 10/09 A3021 RMK AO2 T00960094
KBQP 180335Z AUTO 00000KT 10SM CLR 10/10 A3021 RMK AO2 T00970095
KBQP 180315Z AUTO 00000KT 10SM CLR 10/10 A3021 RMK AO2 T01010098
KBQP 180255Z AUTO 00000KT 10SM CLR 10/10 A3020 RMK AO2 T01010099
KBQP 180235Z AUTO 00000KT 10SM CLR 11/10 A3020 RMK AO2 T01060103
KBQP 180215Z AUTO 00000KT 10SM CLR 10/10 A3020 RMK AO2 T01030100
KBQP 180155Z AUTO 00000KT 10SM CLR 11/10 A3019 RMK AO2 T01050100
KBQP 180135Z AUTO 00000KT 10SM CLR 11/11 A3019 RMK AO2 T01110107
KBQP 180115Z AUTO 00000KT 10SM CLR 12/10 A3019 RMK AO2 T01180102
KBQP 180055Z AUTO 00000KT 10SM CLR 12/10 A3019 RMK AO2 T01150103
KBQP 180035Z AUTO 00000KT 10SM CLR 12/11 A3019 RMK AO2 T01210113
KBQP 180015Z AUTO 00000KT 10SM CLR 13/10 A3019 RMK AO2 T01340101
KBQP 172355Z AUTO 00000KT 10SM CLR 14/10 A3018 RMK AO2 T01420098 10241 20142
KBQP 172335Z AUTO 00000KT 10SM CLR 16/10 A3018 RMK AO2 T01640102
KBQP 172315Z AUTO 00000KT 10SM CLR 19/10 A3018 RMK AO2 T01880098
KBQP 172255Z AUTO 00000KT 10SM CLR 21/08 A3018 RMK AO2 T02140078
KBQP 172235Z AUTO 00000KT 10SM CLR 23/07 A3019 RMK AO2 T02260073
KBQP 172215Z AUTO 00000KT 10SM CLR 23/07 A3019 RMK AO2 T02310066
KBQP 172155Z AUTO 01003KT 10SM CLR 24/06 A3019 RMK AO2 T02350059
KBQP 172135Z AUTO 06003KT 10SM CLR 24/06 A3019 RMK AO2 T02380059
KBQP 172115Z AUTO 00000KT 10SM CLR 24/06 A3020 RMK AO2 T02390058
KBQP 172055Z AUTO 05005KT 10SM CLR 24/06 A3020 RMK AO2 T02380056
KBQP 172035Z AUTO 00000KT 10SM CLR 24/05 A3021 RMK AO2 T02400052
KBQP 172015Z AUTO 36003KT 10SM CLR 24/06 A3021 RMK AO2 T02390064
KBQP 171955Z AUTO 09004KT 10SM CLR 24/06 A3021 RMK AO2 T02360060
KBQP 171935Z AUTO 36005KT 10SM CLR 24/06 A3022 RMK AO2 T02360064
KBQP 171915Z AUTO 00000KT 10SM CLR 23/06 A3023 RMK AO2 T02280059